sensor_id;sensor_type;location;lat;lon;timestamp;P1;durP1;ratioP1;P2;durP2;ratioP2
63010;SDS011;49100;48.842;2.166;2022-09-21T00:01:24;18.50;;;15.50;;
63010;SDS011;49100;48.842;2.166;2022-09-21T00:04:11;17.00;;;13.00;;
63010;SDS011;49100;48.842;2.166;2022-09-21T00:06:55;15.75;;;12.75;;
63010;SDS011;49100;48.842;2.166;2022-09-21T00:09:40;17.00;;;14.75;;
63010;SDS011;49100;48.842;2.166;2022-09-21T00:12:24;16.75;;;13.75;;
63010;SDS011;49100;48.842;2.166;2022-09-21T00:15:09;15.75;;;13.25;;
63010;SDS011;49100;48.842;2.166;2022-09-21T00:17:54;16.50;;;13.00;;
63010;SDS011;49100;48.842;2.166;2022-09-21T00:20:40;18.00;;;13.00;;
63010;SDS011;49100;48.842;2.166;2022-09-21T00:23:28;14.00;;;13.00;;
63010;SDS011;49100;48.842;2.166;2022-09-21T00:26:16;17.25;;;15.50;;
63010;SDS011;49100;48.842;2.166;2022-09-21T00:29:03;18.75;;;14.00;;
63010;SDS011;49100;48.842;2.166;2022-09-21T00:31:48;20.00;;;15.00;;
63010;SDS011;49100;48.842;2.166;2022-09-21T00:34:32;14.75;;;14.50;;
63010;SDS011;49100;48.842;2.166;2022-09-21T00:37:17;14.50;;;13.50;;
63010;SDS011;49100;48.842;2.166;2022-09-21T00:40:03;16.50;;;14.00;;
63010;SDS011;49100;48.842;2.166;2022-09-21T00:42:48;13.50;;;12.25;;
63010;SDS011;49100;48.842;2.166;2022-09-21T00:45:33;17.75;;;12.75;;
63010;SDS011;49100;48.842;2.166;2022-09-21T00:48:17;14.75;;;12.25;;
63010;SDS011;49100;48.842;2.166;2022-09-21T00:51:04;20.00;;;14.00;;
63010;SDS011;49100;48.842;2.166;2022-09-21T00:53:50;15.50;;;15.25;;
63010;SDS011;49100;48.842;2.166;2022-09-21T00:56:38;18.75;;;14.00;;
63010;SDS011;49100;48.842;2.166;2022-09-21T00:59:22;14.25;;;12.25;;
63010;SDS011;49100;48.842;2.166;2022-09-21T01:02:07;13.25;;;11.75;;
63010;SDS011;49100;48.842;2.166;2022-09-21T01:04:52;17.00;;;14.50;;
63010;SDS011;49100;48.842;2.166;2022-09-21T01:07:39;13.75;;;13.75;;
63010;SDS011;49100;48.842;2.166;2022-09-21T01:10:26;17.00;;;14.00;;
63010;SDS011;49100;48.842;2.166;2022-09-21T01:13:29;16.00;;;10.00;;
63010;SDS011;49100;48.842;2.166;2022-09-21T01:16:32;19.50;;;14.00;;
63010;SDS011;49100;48.842;2.166;2022-09-21T01:22:36;18.25;;;15.00;;
63010;SDS011;49100;48.842;2.166;2022-09-21T01:28:37;18.25;;;13.50;;
63010;SDS011;49100;48.842;2.166;2022-09-21T01:31:27;18.25;;;14.00;;
63010;SDS011;49100;48.842;2.166;2022-09-21T01:34:22;13.00;;;12.75;;
63010;SDS011;49100;48.842;2.166;2022-09-21T01:37:21;15.00;;;12.50;;
63010;SDS011;49100;48.842;2.166;2022-09-21T01:40:42;13.75;;;11.50;;
63010;SDS011;49100;48.842;2.166;2022-09-21T01:43:25;16.50;;;13.00;;
63010;SDS011;49100;48.842;2.166;2022-09-21T01:46:12;14.75;;;14.00;;
63010;SDS011;49100;48.842;2.166;2022-09-21T01:49:02;15.50;;;13.00;;
63010;SDS011;49100;48.842;2.166;2022-09-21T01:52:00;16.00;;;13.00;;
63010;SDS011;49100;48.842;2.166;2022-09-21T01:55:03;20.25;;;15.00;;
63010;SDS011;49100;48.842;2.166;2022-09-21T01:57:55;16.50;;;13.75;;
63010;SDS011;49100;48.842;2.166;2022-09-21T02:00:44;14.25;;;12.75;;
63010;SDS011;49100;48.842;2.166;2022-09-21T02:03:36;20.00;;;14.50;;
63010;SDS011;49100;48.842;2.166;2022-09-21T02:06:23;22.25;;;13.00;;
63010;SDS011;49100;48.842;2.166;2022-09-21T02:09:10;17.25;;;12.00;;
63010;SDS011;49100;48.842;2.166;2022-09-21T02:11:54;12.25;;;11.00;;
63010;SDS011;49100;48.842;2.166;2022-09-21T02:14:41;17.00;;;13.75;;
63010;SDS011;49100;48.842;2.166;2022-09-21T02:20:23;20.75;;;13.25;;
63010;SDS011;49100;48.842;2.166;2022-09-21T02:23:26;14.50;;;12.50;;
63010;SDS011;49100;48.842;2.166;2022-09-21T02:26:17;14.50;;;12.00;;
63010;SDS011;49100;48.842;2.166;2022-09-21T02:38:14;14.75;;;13.25;;
63010;SDS011;49100;48.842;2.166;2022-09-21T02:41:29;19.75;;;13.50;;
63010;SDS011;49100;48.842;2.166;2022-09-21T02:44:33;15.75;;;11.00;;
63010;SDS011;49100;48.842;2.166;2022-09-21T02:47:27;15.00;;;12.50;;
63010;SDS011;49100;48.842;2.166;2022-09-21T02:50:18;14.50;;;14.00;;
63010;SDS011;49100;48.842;2.166;2022-09-21T02:53:06;13.50;;;12.00;;
63010;SDS011;49100;48.842;2.166;2022-09-21T02:55:53;14.75;;;12.50;;
63010;SDS011;49100;48.842;2.166;2022-09-21T02:58:41;17.50;;;13.00;;
63010;SDS011;49100;48.842;2.166;2022-09-21T03:01:29;17.75;;;14.00;;
63010;SDS011;49100;48.842;2.166;2022-09-21T03:04:15;14.75;;;13.00;;
63010;SDS011;49100;48.842;2.166;2022-09-21T03:07:00;17.75;;;14.50;;
63010;SDS011;49100;48.842;2.166;2022-09-21T03:09:44;15.75;;;13.00;;
63010;SDS011;49100;48.842;2.166;2022-09-21T03:12:29;19.00;;;14.50;;
63010;SDS011;49100;48.842;2.166;2022-09-21T03:15:15;12.25;;;12.25;;
63010;SDS011;49100;48.842;2.166;2022-09-21T03:18:01;16.50;;;13.75;;
63010;SDS011;49100;48.842;2.166;2022-09-21T03:20:47;16.00;;;13.75;;
63010;SDS011;49100;48.842;2.166;2022-09-21T03:23:32;14.25;;;13.75;;
63010;SDS011;49100;48.842;2.166;2022-09-21T03:26:16;14.25;;;13.00;;
63010;SDS011;49100;48.842;2.166;2022-09-21T03:29:05;15.25;;;12.50;;
63010;SDS011;49100;48.842;2.166;2022-09-21T03:31:49;12.00;;;10.00;;
63010;SDS011;49100;48.842;2.166;2022-09-21T03:34:35;11.75;;;9.50;;
63010;SDS011;49100;48.842;2.166;2022-09-21T03:37:20;16.25;;;14.75;;
63010;SDS011;49100;48.842;2.166;2022-09-21T03:40:04;15.50;;;15.25;;
63010;SDS011;49100;48.842;2.166;2022-09-21T03:42:49;12.00;;;10.00;;
63010;SDS011;49100;48.842;2.166;2022-09-21T03:45:33;20.25;;;14.00;;
63010;SDS011;49100;48.842;2.166;2022-09-21T03:48:18;18.00;;;13.75;;
63010;SDS011;49100;48.842;2.166;2022-09-21T03:51:04;17.25;;;13.75;;
63010;SDS011;49100;48.842;2.166;2022-09-21T03:53:48;14.75;;;11.25;;
63010;SDS011;49100;48.842;2.166;2022-09-21T03:56:33;15.50;;;13.50;;
63010;SDS011;49100;48.842;2.166;2022-09-21T03:59:17;21.00;;;16.50;;
63010;SDS011;49100;48.842;2.166;2022-09-21T04:02:02;16.50;;;13.00;;
63010;SDS011;49100;48.842;2.166;2022-09-21T04:04:46;15.75;;;12.50;;
63010;SDS011;49100;48.842;2.166;2022-09-21T04:07:30;20.25;;;14.00;;
63010;SDS011;49100;48.842;2.166;2022-09-21T04:10:17;16.75;;;14.25;;
63010;SDS011;49100;48.842;2.166;2022-09-21T04:13:04;18.75;;;15.00;;
63010;SDS011;49100;48.842;2.166;2022-09-21T04:15:49;16.75;;;12.50;;
63010;SDS011;49100;48.842;2.166;2022-09-21T04:18:34;16.75;;;13.75;;
63010;SDS011;49100;48.842;2.166;2022-09-21T04:21:19;18.25;;;15.25;;
63010;SDS011;49100;48.842;2.166;2022-09-21T04:24:05;17.25;;;15.00;;
63010;SDS011;49100;48.842;2.166;2022-09-21T04:26:49;16.00;;;15.00;;
63010;SDS011;49100;48.842;2.166;2022-09-21T04:29:34;17.00;;;14.00;;
63010;SDS011;49100;48.842;2.166;2022-09-21T04:32:19;20.25;;;15.75;;
63010;SDS011;49100;48.842;2.166;2022-09-21T04:35:03;19.00;;;13.50;;
63010;SDS011;49100;48.842;2.166;2022-09-21T04:37:48;16.00;;;14.00;;
63010;SDS011;49100;48.842;2.166;2022-09-21T04:40:32;17.50;;;14.00;;
63010;SDS011;49100;48.842;2.166;2022-09-21T04:43:17;13.75;;;13.50;;
63010;SDS011;49100;48.842;2.166;2022-09-21T04:46:05;17.50;;;15.25;;
63010;SDS011;49100;48.842;2.166;2022-09-21T04:48:50;16.25;;;15.25;;
63010;SDS011;49100;48.842;2.166;2022-09-21T04:51:35;18.00;;;15.75;;
63010;SDS011;49100;48.842;2.166;2022-09-21T04:54:20;18.00;;;14.75;;
63010;SDS011;49100;48.842;2.166;2022-09-21T04:57:04;21.50;;;18.00;;
63010;SDS011;49100;48.842;2.166;2022-09-21T04:59:49;19.50;;;15.50;;
63010;SDS011;49100;48.842;2.166;2022-09-21T05:02:33;14.25;;;14.25;;
63010;SDS011;49100;48.842;2.166;2022-09-21T05:05:18;14.75;;;14.00;;
63010;SDS011;49100;48.842;2.166;2022-09-21T05:08:03;21.75;;;15.00;;
63010;SDS011;49100;48.842;2.166;2022-09-21T05:10:47;13.25;;;13.00;;
63010;SDS011;49100;48.842;2.166;2022-09-21T05:13:31;18.25;;;14.25;;
63010;SDS011;49100;48.842;2.166;2022-09-21T05:16:16;18.75;;;12.50;;
63010;SDS011;49100;48.842;2.166;2022-09-21T05:19:01;25.00;;;18.00;;
63010;SDS011;49100;48.842;2.166;2022-09-21T05:21:46;16.50;;;15.25;;
63010;SDS011;49100;48.842;2.166;2022-09-21T05:24:31;18.50;;;16.25;;
63010;SDS011;49100;48.842;2.166;2022-09-21T05:27:15;19.25;;;17.25;;
63010;SDS011;49100;48.842;2.166;2022-09-21T05:29:59;17.00;;;15.75;;
63010;SDS011;49100;48.842;2.166;2022-09-21T05:32:47;24.50;;;19.25;;
63010;SDS011;49100;48.842;2.166;2022-09-21T05:35:47;25.50;;;18.00;;
63010;SDS011;49100;48.842;2.166;2022-09-21T05:38:39;24.50;;;19.00;;
63010;SDS011;49100;48.842;2.166;2022-09-21T05:41:24;19.25;;;16.75;;
63010;SDS011;49100;48.842;2.166;2022-09-21T05:44:12;21.25;;;17.00;;
63010;SDS011;49100;48.842;2.166;2022-09-21T05:47:01;23.25;;;23.25;;
63010;SDS011;49100;48.842;2.166;2022-09-21T05:53:12;23.75;;;16.50;;
63010;SDS011;49100;48.842;2.166;2022-09-21T06:05:27;17.50;;;15.00;;
63010;SDS011;49100;48.842;2.166;2022-09-21T06:08:12;18.00;;;16.25;;
63010;SDS011;49100;48.842;2.166;2022-09-21T06:10:56;20.00;;;16.75;;
63010;SDS011;49100;48.842;2.166;2022-09-21T06:13:41;17.75;;;16.00;;
63010;SDS011;49100;48.842;2.166;2022-09-21T06:16:26;23.25;;;18.75;;
63010;SDS011;49100;48.842;2.166;2022-09-21T06:19:11;22.50;;;21.00;;
63010;SDS011;49100;48.842;2.166;2022-09-21T06:21:56;29.00;;;26.00;;
63010;SDS011;49100;48.842;2.166;2022-09-21T06:24:40;31.25;;;22.50;;
63010;SDS011;49100;48.842;2.166;2022-09-21T06:27:26;44.25;;;37.50;;
63010;SDS011;49100;48.842;2.166;2022-09-21T06:30:11;58.75;;;47.25;;
63010;SDS011;49100;48.842;2.166;2022-09-21T06:32:57;61.50;;;50.00;;
63010;SDS011;49100;48.842;2.166;2022-09-21T06:35:43;65.75;;;51.00;;
63010;SDS011;49100;48.842;2.166;2022-09-21T06:38:27;68.75;;;53.00;;
63010;SDS011;49100;48.842;2.166;2022-09-21T06:41:12;67.75;;;53.00;;
63010;SDS011;49100;48.842;2.166;2022-09-21T06:43:57;68.75;;;53.50;;
63010;SDS011;49100;48.842;2.166;2022-09-21T06:46:41;71.00;;;51.75;;
63010;SDS011;49100;48.842;2.166;2022-09-21T06:49:26;62.50;;;50.50;;
63010;SDS011;49100;48.842;2.166;2022-09-21T06:52:11;66.75;;;51.25;;
63010;SDS011;49100;48.842;2.166;2022-09-21T06:54:55;61.00;;;46.50;;
63010;SDS011;49100;48.842;2.166;2022-09-21T06:57:40;62.00;;;48.50;;
63010;SDS011;49100;48.842;2.166;2022-09-21T07:00:25;60.50;;;47.50;;
63010;SDS011;49100;48.842;2.166;2022-09-21T07:03:10;61.75;;;48.25;;
63010;SDS011;49100;48.842;2.166;2022-09-21T07:05:57;78.75;;;70.75;;
63010;SDS011;49100;48.842;2.166;2022-09-21T07:08:42;47.00;;;37.75;;
63010;SDS011;49100;48.842;2.166;2022-09-21T07:11:27;22.75;;;21.75;;
63010;SDS011;49100;48.842;2.166;2022-09-21T07:14:12;21.00;;;18.75;;
63010;SDS011;49100;48.842;2.166;2022-09-21T07:16:57;19.75;;;19.75;;
63010;SDS011;49100;48.842;2.166;2022-09-21T07:19:42;22.25;;;15.75;;
63010;SDS011;49100;48.842;2.166;2022-09-21T07:22:27;19.00;;;17.00;;
63010;SDS011;49100;48.842;2.166;2022-09-21T07:25:13;20.25;;;16.00;;
63010;SDS011;49100;48.842;2.166;2022-09-21T07:27:58;28.75;;;23.75;;
63010;SDS011;49100;48.842;2.166;2022-09-21T07:30:43;17.00;;;15.00;;
63010;SDS011;49100;48.842;2.166;2022-09-21T07:33:27;18.75;;;13.75;;
63010;SDS011;49100;48.842;2.166;2022-09-21T07:36:13;21.25;;;15.75;;
63010;SDS011;49100;48.842;2.166;2022-09-21T07:39:00;19.75;;;14.75;;
63010;SDS011;49100;48.842;2.166;2022-09-21T07:41:45;17.75;;;15.25;;
63010;SDS011;49100;48.842;2.166;2022-09-21T07:44:30;17.50;;;15.50;;
63010;SDS011;49100;48.842;2.166;2022-09-21T07:47:14;13.50;;;12.75;;
63010;SDS011;49100;48.842;2.166;2022-09-21T07:49:59;13.25;;;9.50;;
63010;SDS011;49100;48.842;2.166;2022-09-21T07:52:43;12.25;;;11.00;;
63010;SDS011;49100;48.842;2.166;2022-09-21T07:55:28;15.75;;;14.00;;
63010;SDS011;49100;48.842;2.166;2022-09-21T07:58:12;18.25;;;13.00;;
63010;SDS011;49100;48.842;2.166;2022-09-21T08:01:16;11.75;;;11.75;;
63010;SDS011;49100;48.842;2.166;2022-09-21T08:04:01;11.75;;;10.00;;
63010;SDS011;49100;48.842;2.166;2022-09-21T08:06:46;12.25;;;10.75;;
63010;SDS011;49100;48.842;2.166;2022-09-21T08:09:33;10.00;;;10.00;;
63010;SDS011;49100;48.842;2.166;2022-09-21T08:12:18;10.50;;;8.75;;
63010;SDS011;49100;48.842;2.166;2022-09-21T08:15:03;13.25;;;10.00;;
63010;SDS011;49100;48.842;2.166;2022-09-21T08:17:48;21.25;;;18.75;;
63010;SDS011;49100;48.842;2.166;2022-09-21T08:20:34;14.75;;;11.50;;
63010;SDS011;49100;48.842;2.166;2022-09-21T08:23:19;10.75;;;9.75;;
63010;SDS011;49100;48.842;2.166;2022-09-21T08:26:03;12.25;;;9.75;;
63010;SDS011;49100;48.842;2.166;2022-09-21T08:28:50;11.25;;;10.00;;
63010;SDS011;49100;48.842;2.166;2022-09-21T08:31:36;11.75;;;11.75;;
63010;SDS011;49100;48.842;2.166;2022-09-21T08:34:20;10.75;;;10.50;;
63010;SDS011;49100;48.842;2.166;2022-09-21T08:37:07;10.50;;;10.50;;
63010;SDS011;49100;48.842;2.166;2022-09-21T08:39:52;15.50;;;11.75;;
63010;SDS011;49100;48.842;2.166;2022-09-21T08:45:41;14.75;;;12.25;;
63010;SDS011;49100;48.842;2.166;2022-09-21T08:48:28;10.00;;;8.75;;
63010;SDS011;49100;48.842;2.166;2022-09-21T08:51:16;8.75;;;7.00;;
63010;SDS011;49100;48.842;2.166;2022-09-21T08:54:06;10.75;;;9.75;;
63010;SDS011;49100;48.842;2.166;2022-09-21T08:56:59;11.75;;;11.50;;
63010;SDS011;49100;48.842;2.166;2022-09-21T08:59:45;12.25;;;12.25;;
63010;SDS011;49100;48.842;2.166;2022-09-21T09:11:52;13.00;;;10.75;;
63010;SDS011;49100;48.842;2.166;2022-09-21T09:20:56;13.00;;;12.00;;
63010;SDS011;49100;48.842;2.166;2022-09-21T09:23:48;38.00;;;24.00;;
63010;SDS011;49100;48.842;2.166;2022-09-21T09:26:58;18.25;;;17.00;;
63010;SDS011;49100;48.842;2.166;2022-09-21T09:35:57;10.00;;;7.50;;
63010;SDS011;49100;48.842;2.166;2022-09-21T09:38:51;15.75;;;11.50;;
63010;SDS011;49100;48.842;2.166;2022-09-21T09:50:37;18.00;;;12.25;;
63010;SDS011;49100;48.842;2.166;2022-09-21T09:53:24;12.50;;;10.25;;
63010;SDS011;49100;48.842;2.166;2022-09-21T09:56:09;16.50;;;12.25;;
63010;SDS011;49100;48.842;2.166;2022-09-21T09:58:56;12.00;;;11.00;;
63010;SDS011;49100;48.842;2.166;2022-09-21T10:01:46;11.75;;;11.75;;
63010;SDS011;49100;48.842;2.166;2022-09-21T10:07:46;18.75;;;15.00;;
63010;SDS011;49100;48.842;2.166;2022-09-21T10:10:35;19.50;;;13.75;;
63010;SDS011;49100;48.842;2.166;2022-09-21T10:13:24;12.75;;;10.00;;
63010;SDS011;49100;48.842;2.166;2022-09-21T10:16:33;14.50;;;12.75;;
63010;SDS011;49100;48.842;2.166;2022-09-21T10:19:24;14.75;;;12.25;;
63010;SDS011;49100;48.842;2.166;2022-09-21T10:22:17;11.00;;;11.00;;
63010;SDS011;49100;48.842;2.166;2022-09-21T10:25:02;11.25;;;9.25;;
63010;SDS011;49100;48.842;2.166;2022-09-21T10:27:49;16.75;;;14.75;;
63010;SDS011;49100;48.842;2.166;2022-09-21T10:30:35;12.00;;;10.75;;
63010;SDS011;49100;48.842;2.166;2022-09-21T10:33:21;12.50;;;11.00;;
63010;SDS011;49100;48.842;2.166;2022-09-21T10:36:07;12.75;;;11.75;;
63010;SDS011;49100;48.842;2.166;2022-09-21T10:39:30;16.75;;;13.00;;
63010;SDS011;49100;48.842;2.166;2022-09-21T10:42:16;9.00;;;5.25;;
63010;SDS011;49100;48.842;2.166;2022-09-21T10:50:49;12.50;;;11.00;;
63010;SDS011;49100;48.842;2.166;2022-09-21T10:53:35;11.75;;;9.75;;
63010;SDS011;49100;48.842;2.166;2022-09-21T10:56:20;14.75;;;13.50;;
63010;SDS011;49100;48.842;2.166;2022-09-21T10:59:12;14.75;;;10.75;;
63010;SDS011;49100;48.842;2.166;2022-09-21T11:02:24;9.75;;;7.75;;
63010;SDS011;49100;48.842;2.166;2022-09-21T11:17:18;11.25;;;10.00;;
63010;SDS011;49100;48.842;2.166;2022-09-21T11:20:29;13.75;;;10.00;;
63010;SDS011;49100;48.842;2.166;2022-09-21T11:29:47;14.00;;;9.25;;
63010;SDS011;49100;48.842;2.166;2022-09-21T11:35:31;10.00;;;9.50;;
63010;SDS011;49100;48.842;2.166;2022-09-21T11:38:46;12.00;;;9.50;;
63010;SDS011;49100;48.842;2.166;2022-09-21T11:44:50;16.00;;;11.25;;
63010;SDS011;49100;48.842;2.166;2022-09-21T11:54:17;11.25;;;9.25;;
63010;SDS011;49100;48.842;2.166;2022-09-21T11:57:25;10.75;;;8.75;;
63010;SDS011;49100;48.842;2.166;2022-09-21T12:00:18;8.75;;;7.75;;
63010;SDS011;49100;48.842;2.166;2022-09-21T12:03:19;9.75;;;9.25;;
63010;SDS011;49100;48.842;2.166;2022-09-21T12:12:20;11.00;;;10.00;;
63010;SDS011;49100;48.842;2.166;2022-09-21T12:15:15;10.50;;;9.25;;
63010;SDS011;49100;48.842;2.166;2022-09-21T12:21:41;12.50;;;10.00;;
63010;SDS011;49100;48.842;2.166;2022-09-21T12:24:32;14.25;;;14.00;;
63010;SDS011;49100;48.842;2.166;2022-09-21T12:27:40;12.50;;;9.75;;
63010;SDS011;49100;48.842;2.166;2022-09-21T12:30:27;15.00;;;12.00;;
63010;SDS011;49100;48.842;2.166;2022-09-21T12:33:31;12.75;;;11.25;;
63010;SDS011;49100;48.842;2.166;2022-09-21T12:39:27;12.00;;;9.00;;
63010;SDS011;49100;48.842;2.166;2022-09-21T12:45:37;11.75;;;10.75;;
63010;SDS011;49100;48.842;2.166;2022-09-21T12:48:35;10.00;;;10.00;;
63010;SDS011;49100;48.842;2.166;2022-09-21T12:54:22;9.75;;;9.25;;
63010;SDS011;49100;48.842;2.166;2022-09-21T12:58:00;10.75;;;10.00;;
63010;SDS011;49100;48.842;2.166;2022-09-21T13:16:23;5.50;;;5.50;;
63010;SDS011;49100;48.842;2.166;2022-09-21T13:19:21;12.50;;;10.50;;
63010;SDS011;49100;48.842;2.166;2022-09-21T13:25:06;11.00;;;9.75;;
63010;SDS011;49100;48.842;2.166;2022-09-21T13:42:47;15.25;;;10.00;;
63010;SDS011;49100;48.842;2.166;2022-09-21T13:48:20;11.50;;;9.50;;
63010;SDS011;49100;48.842;2.166;2022-09-21T13:51:09;12.25;;;9.25;;
63010;SDS011;49100;48.842;2.166;2022-09-21T13:53:57;11.75;;;10.00;;
63010;SDS011;49100;48.842;2.166;2022-09-21T13:56:44;12.00;;;11.25;;
63010;SDS011;49100;48.842;2.166;2022-09-21T13:59:29;12.75;;;10.25;;
63010;SDS011;49100;48.842;2.166;2022-09-21T14:08:32;13.25;;;10.25;;
63010;SDS011;49100;48.842;2.166;2022-09-21T14:16:58;12.25;;;9.25;;
63010;SDS011;49100;48.842;2.166;2022-09-21T14:22:38;14.00;;;10.25;;
63010;SDS011;49100;48.842;2.166;2022-09-21T14:25:24;12.75;;;9.25;;
63010;SDS011;49100;48.842;2.166;2022-09-21T14:28:11;12.25;;;9.25;;
63010;SDS011;49100;48.842;2.166;2022-09-21T14:30:58;10.00;;;7.00;;
63010;SDS011;49100;48.842;2.166;2022-09-21T14:33:49;15.00;;;8.75;;
63010;SDS011;49100;48.842;2.166;2022-09-21T14:36:44;11.00;;;10.25;;
63010;SDS011;49100;48.842;2.166;2022-09-21T14:39:34;10.50;;;8.00;;
63010;SDS011;49100;48.842;2.166;2022-09-21T14:42:23;17.50;;;13.75;;
63010;SDS011;49100;48.842;2.166;2022-09-21T14:45:15;1.25;;;1.25;;
63010;SDS011;49100;48.842;2.166;2022-09-21T14:48:07;12.00;;;10.00;;
63010;SDS011;49100;48.842;2.166;2022-09-21T15:00:41;9.75;;;9.50;;
63010;SDS011;49100;48.842;2.166;2022-09-21T15:03:52;5.00;;;5.00;;
63010;SDS011;49100;48.842;2.166;2022-09-21T15:10:24;18.50;;;12.25;;
63010;SDS011;49100;48.842;2.166;2022-09-21T15:19:27;15.50;;;13.50;;
63010;SDS011;49100;48.842;2.166;2022-09-21T15:25:01;13.75;;;12.25;;
63010;SDS011;49100;48.842;2.166;2022-09-21T15:27:47;13.75;;;9.25;;
63010;SDS011;49100;48.842;2.166;2022-09-21T15:30:39;14.50;;;13.50;;
63010;SDS011;49100;48.842;2.166;2022-09-21T15:33:28;15.75;;;15.00;;
63010;SDS011;49100;48.842;2.166;2022-09-21T15:36:24;14.75;;;11.75;;
63010;SDS011;49100;48.842;2.166;2022-09-21T15:39:24;11.50;;;10.25;;
63010;SDS011;49100;48.842;2.166;2022-09-21T15:42:17;12.75;;;10.50;;
63010;SDS011;49100;48.842;2.166;2022-09-21T15:45:16;13.75;;;12.00;;
63010;SDS011;49100;48.842;2.166;2022-09-21T15:48:01;20.50;;;14.75;;
63010;SDS011;49100;48.842;2.166;2022-09-21T15:50:58;13.00;;;10.00;;
63010;SDS011;49100;48.842;2.166;2022-09-21T15:54:08;17.00;;;13.75;;
63010;SDS011;49100;48.842;2.166;2022-09-21T15:57:34;18.00;;;14.50;;
63010;SDS011;49100;48.842;2.166;2022-09-21T16:03:14;14.50;;;12.00;;
63010;SDS011;49100;48.842;2.166;2022-09-21T16:06:22;16.50;;;15.00;;
63010;SDS011;49100;48.842;2.166;2022-09-21T16:12:45;13.00;;;11.00;;
63010;SDS011;49100;48.842;2.166;2022-09-21T16:15:29;19.75;;;17.25;;
63010;SDS011;49100;48.842;2.166;2022-09-21T16:18:28;29.00;;;24.00;;
63010;SDS011;49100;48.842;2.166;2022-09-21T16:21:33;21.50;;;17.75;;
63010;SDS011;49100;48.842;2.166;2022-09-21T16:24:22;14.25;;;13.25;;
63010;SDS011;49100;48.842;2.166;2022-09-21T16:27:12;26.00;;;19.50;;
63010;SDS011;49100;48.842;2.166;2022-09-21T16:29:59;30.50;;;26.25;;
63010;SDS011;49100;48.842;2.166;2022-09-21T16:32:43;24.25;;;18.50;;
63010;SDS011;49100;48.842;2.166;2022-09-21T16:35:30;21.75;;;16.00;;
63010;SDS011;49100;48.842;2.166;2022-09-21T16:38:23;14.25;;;11.75;;
63010;SDS011;49100;48.842;2.166;2022-09-21T16:41:10;14.00;;;13.50;;
63010;SDS011;49100;48.842;2.166;2022-09-21T16:43:57;12.50;;;9.50;;
63010;SDS011;49100;48.842;2.166;2022-09-21T16:46:49;13.75;;;12.00;;
63010;SDS011;49100;48.842;2.166;2022-09-21T16:49:36;12.50;;;12.00;;
63010;SDS011;49100;48.842;2.166;2022-09-21T16:52:22;16.00;;;12.75;;
63010;SDS011;49100;48.842;2.166;2022-09-21T16:55:07;14.25;;;12.25;;
63010;SDS011;49100;48.842;2.166;2022-09-21T16:57:53;11.50;;;11.25;;
63010;SDS011;49100;48.842;2.166;2022-09-21T17:00:39;13.50;;;11.75;;
63010;SDS011;49100;48.842;2.166;2022-09-21T17:03:24;18.75;;;13.75;;
63010;SDS011;49100;48.842;2.166;2022-09-21T17:08:56;13.75;;;11.25;;
63010;SDS011;49100;48.842;2.166;2022-09-21T17:11:40;14.75;;;11.00;;
63010;SDS011;49100;48.842;2.166;2022-09-21T17:14:27;18.50;;;12.50;;
63010;SDS011;49100;48.842;2.166;2022-09-21T17:17:16;14.25;;;13.25;;
63010;SDS011;49100;48.842;2.166;2022-09-21T17:20:13;18.50;;;14.00;;
63010;SDS011;49100;48.842;2.166;2022-09-21T17:23:02;16.50;;;12.50;;
63010;SDS011;49100;48.842;2.166;2022-09-21T17:25:47;15.50;;;11.50;;
63010;SDS011;49100;48.842;2.166;2022-09-21T17:28:32;18.25;;;14.00;;
63010;SDS011;49100;48.842;2.166;2022-09-21T17:31:17;15.00;;;12.50;;
63010;SDS011;49100;48.842;2.166;2022-09-21T17:34:08;22.00;;;19.25;;
63010;SDS011;49100;48.842;2.166;2022-09-21T17:36:55;20.75;;;18.75;;
63010;SDS011;49100;48.842;2.166;2022-09-21T17:39:39;17.25;;;16.00;;
63010;SDS011;49100;48.842;2.166;2022-09-21T17:42:25;18.25;;;15.50;;
63010;SDS011;49100;48.842;2.166;2022-09-21T17:45:26;14.00;;;11.25;;
63010;SDS011;49100;48.842;2.166;2022-09-21T17:48:24;25.00;;;16.00;;
63010;SDS011;49100;48.842;2.166;2022-09-21T17:51:09;21.75;;;16.75;;
63010;SDS011;49100;48.842;2.166;2022-09-21T17:53:54;18.00;;;15.75;;
63010;SDS011;49100;48.842;2.166;2022-09-21T17:56:42;23.00;;;18.50;;
63010;SDS011;49100;48.842;2.166;2022-09-21T17:59:42;24.25;;;20.25;;
63010;SDS011;49100;48.842;2.166;2022-09-21T18:02:34;25.25;;;18.50;;
63010;SDS011;49100;48.842;2.166;2022-09-21T18:05:21;15.75;;;15.75;;
63010;SDS011;49100;48.842;2.166;2022-09-21T18:08:08;11.75;;;10.75;;
63010;SDS011;49100;48.842;2.166;2022-09-21T18:20:00;11.75;;;11.00;;
63010;SDS011;49100;48.842;2.166;2022-09-21T18:26:15;16.75;;;13.50;;
63010;SDS011;49100;48.842;2.166;2022-09-21T18:29:01;18.75;;;16.50;;
63010;SDS011;49100;48.842;2.166;2022-09-21T18:37:58;18.25;;;14.75;;
63010;SDS011;49100;48.842;2.166;2022-09-21T18:41:03;19.75;;;15.75;;
63010;SDS011;49100;48.842;2.166;2022-09-21T18:44:19;14.50;;;13.75;;
63010;SDS011;49100;48.842;2.166;2022-09-21T18:47:17;18.50;;;15.25;;
63010;SDS011;49100;48.842;2.166;2022-09-21T18:53:07;14.75;;;10.25;;
63010;SDS011;49100;48.842;2.166;2022-09-21T18:55:59;13.00;;;10.75;;
63010;SDS011;49100;48.842;2.166;2022-09-21T18:58:43;19.00;;;12.25;;
63010;SDS011;49100;48.842;2.166;2022-09-21T19:01:29;16.50;;;13.00;;
63010;SDS011;49100;48.842;2.166;2022-09-21T19:04:16;15.00;;;12.00;;
63010;SDS011;49100;48.842;2.166;2022-09-21T19:13:10;16.00;;;12.75;;
63010;SDS011;49100;48.842;2.166;2022-09-21T19:16:40;20.50;;;11.75;;
63010;SDS011;49100;48.842;2.166;2022-09-21T19:25:45;13.00;;;11.25;;
63010;SDS011;49100;48.842;2.166;2022-09-21T19:31:35;14.75;;;12.50;;
63010;SDS011;49100;48.842;2.166;2022-09-21T19:34:20;12.75;;;11.50;;
63010;SDS011;49100;48.842;2.166;2022-09-21T19:37:04;11.50;;;11.00;;
63010;SDS011;49100;48.842;2.166;2022-09-21T19:39:50;12.50;;;10.75;;
63010;SDS011;49100;48.842;2.166;2022-09-21T19:42:37;17.25;;;13.00;;
63010;SDS011;49100;48.842;2.166;2022-09-21T19:45:30;12.50;;;10.50;;
63010;SDS011;49100;48.842;2.166;2022-09-21T19:48:15;11.25;;;10.00;;
63010;SDS011;49100;48.842;2.166;2022-09-21T19:51:01;15.50;;;13.00;;
63010;SDS011;49100;48.842;2.166;2022-09-21T19:53:52;15.75;;;13.75;;
63010;SDS011;49100;48.842;2.166;2022-09-21T19:56:57;15.25;;;13.00;;
63010;SDS011;49100;48.842;2.166;2022-09-21T20:00:00;14.75;;;12.50;;
63010;SDS011;49100;48.842;2.166;2022-09-21T20:06:00;15.00;;;13.75;;
63010;SDS011;49100;48.842;2.166;2022-09-21T20:09:16;13.50;;;12.00;;
63010;SDS011;49100;48.842;2.166;2022-09-21T20:12:17;17.50;;;13.75;;
63010;SDS011;49100;48.842;2.166;2022-09-21T20:15:20;14.00;;;11.75;;
63010;SDS011;49100;48.842;2.166;2022-09-21T20:21:23;16.00;;;13.00;;
63010;SDS011;49100;48.842;2.166;2022-09-21T20:24:24;13.00;;;10.00;;
63010;SDS011;49100;48.842;2.166;2022-09-21T20:27:31;15.00;;;12.25;;
63010;SDS011;49100;48.842;2.166;2022-09-21T20:30:24;10.00;;;10.00;;
63010;SDS011;49100;48.842;2.166;2022-09-21T20:33:14;14.25;;;13.25;;
63010;SDS011;49100;48.842;2.166;2022-09-21T20:36:00;13.75;;;13.75;;
63010;SDS011;49100;48.842;2.166;2022-09-21T20:38:46;10.75;;;10.75;;
63010;SDS011;49100;48.842;2.166;2022-09-21T20:41:31;17.25;;;12.75;;
63010;SDS011;49100;48.842;2.166;2022-09-21T20:44:16;14.00;;;10.50;;